createdAt,value
2023-04-10T00:01:36.079Z,6.93
2023-04-10T00:05:40.761Z,5.82
2023-04-10T00:09:44.364Z,6.65
2023-04-10T00:13:47.527Z,5.25
2023-04-10T00:17:55.446Z,6.32
2023-04-10T00:22:00.899Z,8.40
2023-04-10T00:26:04.208Z,7.70
2023-04-10T00:30:09.225Z,6.45
2023-04-10T00:34:14.159Z,5.93
2023-04-10T00:38:19.053Z,6.50
2023-04-10T00:42:22.590Z,7.05
2023-04-10T00:46:26.439Z,8.07
2023-04-10T00:50:29.813Z,7.57
2023-04-10T00:54:36.514Z,5.57
2023-04-10T00:58:40.203Z,7.22
2023-04-10T01:02:43.766Z,6.55
2023-04-10T01:06:58.725Z,7.88
2023-04-10T01:11:09.448Z,6.68
2023-04-10T01:15:14.840Z,7.70
2023-04-10T01:19:28.104Z,7.15
2023-04-10T01:23:55.444Z,6.18
2023-04-10T01:28:13.162Z,7.20
2023-04-10T01:32:20.619Z,7.80
2023-04-10T01:36:30.042Z,7.47
2023-04-10T01:40:34.345Z,6.80
2023-04-10T01:44:40.271Z,7.32
2023-04-10T01:48:46.410Z,7.13
2023-04-10T01:52:50.507Z,7.68
2023-04-10T01:56:53.876Z,6.95
2023-04-10T02:00:57.210Z,8.10
2023-04-10T02:05:02.201Z,6.78
2023-04-10T02:09:14.238Z,8.20
2023-04-10T02:13:22.333Z,7.00
2023-04-10T02:17:30.258Z,5.22
2023-04-10T02:21:35.162Z,7.70
2023-04-10T02:25:38.656Z,6.50
2023-04-10T02:29:41.685Z,7.05
2023-04-10T02:33:45.113Z,6.13
2023-04-10T02:37:51.039Z,6.47
2023-04-10T02:41:54.548Z,6.40
2023-04-10T02:45:57.669Z,6.82
2023-04-10T02:50:01.204Z,5.78
2023-04-10T02:54:06.216Z,6.50
2023-04-10T02:58:09.898Z,7.68
2023-04-10T03:02:13.204Z,5.93
2023-04-10T03:06:16.842Z,6.00
2023-04-10T03:10:21.430Z,6.32
2023-04-10T03:14:24.828Z,6.80
2023-04-10T03:18:28.143Z,7.15
2023-04-10T03:22:32.704Z,7.88
2023-04-10T03:26:37.382Z,6.68
2023-04-10T03:30:40.744Z,6.60
2023-04-10T03:34:43.765Z,7.63
2023-04-10T03:38:46.982Z,4.78
2023-04-10T03:42:51.385Z,6.68
2023-04-10T03:46:55.082Z,5.55
2023-04-10T03:50:58.200Z,6.13
2023-04-10T03:55:01.391Z,5.38
2023-04-10T03:59:06.199Z,5.95
2023-04-10T04:03:09.573Z,4.38
2023-04-10T04:07:14.154Z,5.60
2023-04-10T04:11:17.511Z,5.95
2023-04-10T04:15:24.027Z,5.85
2023-04-10T04:19:27.532Z,5.97
2023-04-10T04:23:30.589Z,6.97
2023-04-10T04:27:34.174Z,5.88
2023-04-10T04:31:39.190Z,6.20
2023-04-10T04:35:42.774Z,7.18
2023-04-10T04:39:46.081Z,6.30
2023-04-10T04:43:50.144Z,4.93
2023-04-10T04:47:54.814Z,6.50
2023-04-10T04:51:57.886Z,4.95
2023-04-10T04:56:00.979Z,5.22
2023-04-10T05:00:04.325Z,4.07
2023-04-10T05:04:08.860Z,6.18
2023-04-10T05:08:12.332Z,5.88
2023-04-10T05:12:15.621Z,4.97
2023-04-10T05:16:18.878Z,4.82
2023-04-10T05:20:23.875Z,5.40
2023-04-10T05:24:27.636Z,5.03
2023-04-10T05:28:31.245Z,7.80
2023-04-10T05:32:34.503Z,5.38
2023-04-10T05:36:39.251Z,5.75
2023-04-10T05:40:46.119Z,6.10
2023-04-10T05:44:49.427Z,5.00
2023-04-10T05:48:53.518Z,6.78
2023-04-10T05:52:58.531Z,4.75
2023-04-10T05:57:02.411Z,6.05
2023-04-10T06:01:06.198Z,5.35
2023-04-10T06:05:10.053Z,5.68
2023-04-10T06:09:15.070Z,4.22
2023-04-10T06:13:18.535Z,5.85
2023-04-10T06:17:22.028Z,4.90
2023-04-10T06:21:25.376Z,5.20
2023-04-10T06:25:29.964Z,7.57
2023-04-10T06:29:33.139Z,6.85
2023-04-10T06:33:37.283Z,7.60
2023-04-10T06:37:40.715Z,8.82
2023-04-10T06:41:45.309Z,7.22
2023-04-10T06:45:48.799Z,7.75
2023-04-10T06:49:52.143Z,7.90
2023-04-10T06:53:55.630Z,7.25
2023-04-10T06:58:00.241Z,8.00
2023-04-10T07:02:05.111Z,8.02
2023-04-10T07:06:08.971Z,7.38
2023-04-10T07:10:13.408Z,7.32
2023-04-10T07:14:17.990Z,7.80
2023-04-10T07:18:21.226Z,7.32
2023-04-10T07:22:24.161Z,8.00
2023-04-10T07:26:27.226Z,7.55
2023-04-10T07:30:31.925Z,8.07
2023-04-10T07:34:35.446Z,7.03
2023-04-10T07:38:38.928Z,7.32
2023-04-10T07:42:42.461Z,6.22
2023-04-10T07:46:47.602Z,7.60
2023-04-10T07:50:51.032Z,8.10
2023-04-10T07:54:54.167Z,8.70
2023-04-10T07:58:57.784Z,8.68
2023-04-10T08:03:02.726Z,8.88
2023-04-10T08:07:06.375Z,8.20
2023-04-10T08:11:24.900Z,9.13
2023-04-10T08:15:28.235Z,8.80
2023-04-10T08:19:32.905Z,6.70
2023-04-10T08:23:36.520Z,9.82
2023-04-10T08:27:39.568Z,8.80
2023-04-10T08:31:43.336Z,7.97
2023-04-10T08:35:50.201Z,9.75
2023-04-10T08:39:53.729Z,8.43
2023-04-10T08:43:58.240Z,9.93
2023-04-10T08:48:04.242Z,9.02
2023-04-10T08:52:10.843Z,9.20
2023-04-10T08:56:15.437Z,12.35
2023-04-10T09:04:44.922Z,9.93
2023-04-10T09:08:49.308Z,8.38
2023-04-10T09:12:53.712Z,8.98
2023-04-10T09:17:13.098Z,9.55
2023-04-10T09:21:18.353Z,10.10
2023-04-10T09:25:39.030Z,11.05
2023-04-10T09:29:48.937Z,10.13
2023-04-10T09:34:09.222Z,10.25
2023-04-10T09:38:17.733Z,10.85
2023-04-10T09:42:31.714Z,10.13
2023-04-10T09:46:35.481Z,9.10
2023-04-10T09:50:40.418Z,9.85
2023-04-10T09:54:43.758Z,12.00
2023-04-10T09:58:48.790Z,10.88
2023-04-10T10:02:53.994Z,9.95
2023-04-10T10:06:57.161Z,10.77
2023-04-10T10:11:03.920Z,11.05
2023-04-10T10:15:15.843Z,9.68
2023-04-10T10:19:25.088Z,10.93
2023-04-10T10:23:29.058Z,11.43
2023-04-10T10:27:33.354Z,10.18
2023-04-10T10:31:39.017Z,11.68
2023-04-10T10:35:43.440Z,9.45
2023-04-10T10:39:55.242Z,11.13
2023-04-10T10:44:10.076Z,8.45
2023-04-10T10:48:15.558Z,11.23
2023-04-10T10:52:38.799Z,8.52
2023-04-10T10:56:42.309Z,8.75
2023-04-10T11:01:10.074Z,8.27
2023-04-10T11:05:55.644Z,7.90
2023-04-10T11:09:59.787Z,6.95
2023-04-10T11:14:29.700Z,7.63
2023-04-10T11:19:14.944Z,6.47
2023-04-10T11:23:21.286Z,6.43
2023-04-10T11:27:41.717Z,8.02
2023-04-10T11:31:45.826Z,5.80
2023-04-10T11:35:49.274Z,5.50
2023-04-10T11:40:06.302Z,5.30
2023-04-10T11:44:11.230Z,5.30
2023-04-10T11:48:14.278Z,4.80
2023-04-10T11:52:26.930Z,4.50
2023-04-10T11:56:31.965Z,5.13
2023-04-10T12:00:35.414Z,4.93
2023-04-10T12:04:40.270Z,3.90
2023-04-10T12:08:46.298Z,4.15
2023-04-10T12:12:53.230Z,4.68
2023-04-10T12:16:57.031Z,4.97
2023-04-10T12:21:01.367Z,3.72
2023-04-10T12:25:07.552Z,4.30
2023-04-10T12:29:11.939Z,4.78
2023-04-10T12:33:16.709Z,3.88
2023-04-10T12:37:20.596Z,3.95
2023-04-10T12:41:25.856Z,4.53
2023-04-10T12:50:09.203Z,4.32
2023-04-10T12:54:12.427Z,3.92
2023-04-10T12:58:20.434Z,4.13
2023-04-10T13:02:24.981Z,4.00
2023-04-10T13:06:30.493Z,3.42
2023-04-10T13:10:33.544Z,3.67
2023-04-10T13:14:37.105Z,4.03
2023-04-10T13:18:40.412Z,4.15
2023-04-10T13:22:45.484Z,3.63
2023-04-10T13:26:50.201Z,3.92
2023-04-10T13:30:54.106Z,3.47
2023-04-10T13:34:57.503Z,3.45
2023-04-10T13:39:02.412Z,3.60
2023-04-10T13:43:06.791Z,3.30
2023-04-10T13:47:10.358Z,2.60
2023-04-10T13:51:13.550Z,3.67
2023-04-10T13:55:18.599Z,2.88
2023-04-10T13:59:22.077Z,3.13
2023-04-10T14:03:25.842Z,3.33
2023-04-10T14:07:29.164Z,2.92
2023-04-10T14:11:33.814Z,3.40
2023-04-10T14:15:36.862Z,3.67
2023-04-10T14:19:40.567Z,2.60
2023-04-10T14:23:43.452Z,3.00
2023-04-10T14:27:48.085Z,3.38
2023-04-10T14:31:57.481Z,2.65
2023-04-10T14:36:01.776Z,3.15
2023-04-10T14:40:05.961Z,3.20
2023-04-10T14:44:10.873Z,3.13
2023-04-10T14:48:14.447Z,3.10
2023-04-10T14:52:18.986Z,2.75
2023-04-10T14:56:22.194Z,2.35
2023-04-10T15:00:27.066Z,2.95
2023-04-10T15:04:30.089Z,2.63
2023-04-10T15:08:33.231Z,2.15
2023-04-10T15:12:36.134Z,2.83
2023-04-10T15:16:41.040Z,2.15
2023-04-10T15:20:44.531Z,2.42
2023-04-10T15:24:50.922Z,2.28
2023-04-10T15:28:54.105Z,2.17
2023-04-10T15:32:58.923Z,1.98
2023-04-10T15:37:02.127Z,1.95
2023-04-10T15:41:10.613Z,2.53
2023-04-10T15:45:13.769Z,2.83
2023-04-10T15:49:29.738Z,2.40
2023-04-10T15:53:37.555Z,1.70
2023-04-10T15:57:41.140Z,2.78
2023-04-10T16:01:44.653Z,1.42
2023-04-10T16:05:49.323Z,1.85
2023-04-10T16:09:55.201Z,2.47
2023-04-10T16:13:58.411Z,1.90
2023-04-10T16:18:01.609Z,1.92
2023-04-10T16:22:06.604Z,2.13
2023-04-10T16:26:09.533Z,2.28
2023-04-10T16:30:14.110Z,2.30
2023-04-10T16:34:17.485Z,2.50
2023-04-10T16:38:23.355Z,1.58
2023-04-10T16:42:26.740Z,1.73
2023-04-10T16:46:30.464Z,1.90
2023-04-10T16:50:35.831Z,2.03
2023-04-10T16:54:40.635Z,2.08
2023-04-10T16:58:43.507Z,1.95
2023-04-10T17:02:47.809Z,1.40
2023-04-10T17:06:51.449Z,2.03
2023-04-10T17:10:56.197Z,2.08
2023-04-10T17:14:59.307Z,2.50
2023-04-10T17:19:02.444Z,2.10
2023-04-10T17:23:05.579Z,2.15
2023-04-10T17:27:10.688Z,2.38
2023-04-10T17:31:14.267Z,2.35
2023-04-10T17:35:17.894Z,1.98
2023-04-10T17:39:22.020Z,2.00
2023-04-10T17:43:26.740Z,2.25
2023-04-10T17:47:30.305Z,2.15
2023-04-10T17:51:34.140Z,2.80
2023-04-10T17:55:40.902Z,2.63
2023-04-10T17:59:45.982Z,2.05
2023-04-10T18:03:49.364Z,3.45
2023-04-10T18:07:52.598Z,1.92
2023-04-10T18:11:56.363Z,2.05
2023-04-10T18:16:02.952Z,2.38
2023-04-10T18:20:06.779Z,2.53
2023-04-10T18:24:11.031Z,2.70
2023-04-10T18:28:16.110Z,2.03
2023-04-10T18:32:22.410Z,1.98
2023-04-10T18:36:26.708Z,2.45
2023-04-10T18:40:29.922Z,2.40
2023-04-10T18:44:34.736Z,2.38
2023-04-10T18:48:43.967Z,2.60
2023-04-10T18:52:47.295Z,2.90
2023-04-10T18:56:51.134Z,2.97
2023-04-10T19:00:55.552Z,2.88
2023-04-10T19:05:00.839Z,2.58
2023-04-10T19:09:04.221Z,2.92
2023-04-10T19:13:09.647Z,2.97
2023-04-10T19:17:13.546Z,3.42
2023-04-10T19:21:18.074Z,3.85
2023-04-10T19:25:21.897Z,3.50
2023-04-10T19:29:24.898Z,2.83
2023-04-10T19:33:27.987Z,3.33
2023-04-10T19:37:31.212Z,3.70
2023-04-10T19:41:37.321Z,3.42
2023-04-10T19:45:41.401Z,3.63
2023-04-10T19:49:44.750Z,5.63
2023-04-10T19:53:47.867Z,3.40
2023-04-10T19:57:53.092Z,4.00
2023-04-10T20:01:56.761Z,3.15
2023-04-10T20:06:01.447Z,3.80
2023-04-10T20:10:04.324Z,4.38
2023-04-10T20:14:07.275Z,3.90
2023-04-10T20:18:12.525Z,4.32
2023-04-10T20:22:15.693Z,3.90
2023-04-10T20:26:19.862Z,3.13
2023-04-10T20:30:23.459Z,3.85
2023-04-10T20:34:28.624Z,3.80
2023-04-10T20:38:32.434Z,3.85
2023-04-10T20:42:35.623Z,4.97
2023-04-10T20:46:38.914Z,3.88
2023-04-10T20:50:46.897Z,4.45
2023-04-10T20:54:50.301Z,5.38
2023-04-10T20:58:54.126Z,3.63
2023-04-10T21:02:57.511Z,4.07
2023-04-10T21:07:02.661Z,5.47
2023-04-10T21:11:06.422Z,5.15
2023-04-10T21:15:11.084Z,5.63
2023-04-10T21:19:15.722Z,5.38
2023-04-10T21:23:20.276Z,4.97
2023-04-10T21:27:23.698Z,5.07
2023-04-10T21:31:27.019Z,6.45
2023-04-10T21:35:30.425Z,6.07
2023-04-10T21:39:35.422Z,6.40
2023-04-10T21:43:39.797Z,4.88
2023-04-10T21:47:43.380Z,5.47
2023-04-10T21:51:47.342Z,4.05
2023-04-10T21:55:52.790Z,5.75
2023-04-10T21:59:56.049Z,4.80
2023-04-10T22:03:59.517Z,5.82
2023-04-10T22:08:03.135Z,5.68
2023-04-10T22:12:08.565Z,5.07
2023-04-10T22:16:12.022Z,4.68
2023-04-10T22:20:15.445Z,4.72
2023-04-10T22:24:18.600Z,5.65
2023-04-10T22:28:24.021Z,6.50
2023-04-10T22:32:27.486Z,5.72
2023-04-10T22:36:33.949Z,5.93
2023-04-10T22:40:37.416Z,6.43
2023-04-10T22:44:42.219Z,6.07
2023-04-10T22:48:51.789Z,5.43
2023-04-10T22:52:55.386Z,5.53
2023-04-10T22:56:59.261Z,6.15
2023-04-10T23:01:04.250Z,6.43
2023-04-10T23:09:31.619Z,6.18
2023-04-10T23:13:35.274Z,6.82
2023-04-10T23:17:40.650Z,6.35
2023-04-10T23:21:44.326Z,6.65
2023-04-10T23:25:47.967Z,6.05
2023-04-10T23:29:51.671Z,6.93
2023-04-10T23:33:56.608Z,7.82
2023-04-10T23:38:00.255Z,6.82
2023-04-10T23:42:04.714Z,5.85
2023-04-10T23:46:08.532Z,5.90
2023-04-10T23:50:13.928Z,7.32
2023-04-10T23:54:17.061Z,4.90
2023-04-10T23:58:20.507Z,7.68
